KIPT/IPT METAR and TAF weather

Enter ICAO airport designator
Station Type Date Time Source
KIPT METAR 2019/10/20 18:54 UTC NOAA

KIPT 201854Z 11006KT 10SM OVC019 13/09 A2996 RMK AO2 RAE1758 SLP145 P0000 T01330094


Station Type Date Time Source
KIPT Decoded METAR 2019/10/20 18:54 UTC NOAA

WILLIAMSPORT-LYCOMING COUNTY, PA, United States (KIPT) 41-15N 076-55W 164M
Oct 20, 2019 - 02:54 PM EDT / 2019.10.20 1854 UTC
Wind: from the ESE (110 degrees) at 7 MPH (6 KT):0
Visibility: 10 mile(s):0
Sky conditions: overcast
Precipitation last hour: A trace
Temperature: 55.9 F (13.3 C)
Dew Point: 48.9 F (9.4 C)
Relative Humidity: 77%
Pressure (altimeter): 29.96 in. Hg (1014 hPa)
ob: KIPT 201854Z 11006KT 10SM OVC019 13/09 A2996 RMK AO2 RAE1758 SLP145 P0000 T01330094
cycle: 19

Station Type Date Time Source
KIPT TAF 2019/10/20 18:42 UTC NOAA

TAF KIPT 201741Z 2018/2118 VRB03KT P6SM VCSH SCT015 BKN020 OVC070
FM202000 12005KT P6SM SCT025 BKN100
FM210300 25005KT 3SM BR SCT004 BKN012
TEMPO 2111/2112 1SM BR BKN004
FM211400 13006KT P6SM SKC

Example: see airport list